sensor_id;sensor_type;location;lat;lon;timestamp;temperature;humidity
14192;DHT22;7177;48.572;7.838;2022-07-23T00:02:05;24.30;99.90
14192;DHT22;7177;48.572;7.838;2022-07-23T00:04:32;24.30;99.90
14192;DHT22;7177;48.572;7.838;2022-07-23T00:06:57;24.20;99.90
14192;DHT22;7177;48.572;7.838;2022-07-23T00:09:23;24.10;99.90
14192;DHT22;7177;48.572;7.838;2022-07-23T00:11:49;24.10;99.90
14192;DHT22;7177;48.572;7.838;2022-07-23T00:14:15;24.10;99.90
14192;DHT22;7177;48.572;7.838;2022-07-23T00:16:40;24.10;99.90
14192;DHT22;7177;48.572;7.838;2022-07-23T00:19:06;24.10;99.90
14192;DHT22;7177;48.572;7.838;2022-07-23T00:21:32;24.10;99.90
14192;DHT22;7177;48.572;7.838;2022-07-23T00:23:57;24.10;99.90
14192;DHT22;7177;48.572;7.838;2022-07-23T00:26:23;24.00;99.90
14192;DHT22;7177;48.572;7.838;2022-07-23T00:28:48;24.00;99.90
14192;DHT22;7177;48.572;7.838;2022-07-23T00:31:14;23.90;99.90
14192;DHT22;7177;48.572;7.838;2022-07-23T00:33:40;23.90;99.90
14192;DHT22;7177;48.572;7.838;2022-07-23T00:36:06;24.00;99.90
14192;DHT22;7177;48.572;7.838;2022-07-23T00:38:32;24.00;99.90
14192;DHT22;7177;48.572;7.838;2022-07-23T00:40:57;23.90;99.90
14192;DHT22;7177;48.572;7.838;2022-07-23T00:43:23;23.90;99.90
14192;DHT22;7177;48.572;7.838;2022-07-23T00:45:49;23.80;99.90
14192;DHT22;7177;48.572;7.838;2022-07-23T00:48:15;23.80;99.90
14192;DHT22;7177;48.572;7.838;2022-07-23T00:50:40;23.80;99.90
14192;DHT22;7177;48.572;7.838;2022-07-23T00:53:06;23.60;99.90
14192;DHT22;7177;48.572;7.838;2022-07-23T00:55:33;23.50;99.90
14192;DHT22;7177;48.572;7.838;2022-07-23T00:57:59;23.30;99.90
14192;DHT22;7177;48.572;7.838;2022-07-23T01:00:26;23.20;99.90
14192;DHT22;7177;48.572;7.838;2022-07-23T01:02:51;23.20;99.90
14192;DHT22;7177;48.572;7.838;2022-07-23T01:05:17;23.20;99.90
14192;DHT22;7177;48.572;7.838;2022-07-23T01:07:48;23.10;99.90
14192;DHT22;7177;48.572;7.838;2022-07-23T01:10:13;23.10;99.90
14192;DHT22;7177;48.572;7.838;2022-07-23T01:12:59;23.00;99.90
14192;DHT22;7177;48.572;7.838;2022-07-23T01:15:25;23.00;99.90
14192;DHT22;7177;48.572;7.838;2022-07-23T01:17:51;23.00;99.90
14192;DHT22;7177;48.572;7.838;2022-07-23T01:20:16;22.90;99.90
14192;DHT22;7177;48.572;7.838;2022-07-23T01:22:42;22.90;99.90
14192;DHT22;7177;48.572;7.838;2022-07-23T01:25:08;22.90;99.90
14192;DHT22;7177;48.572;7.838;2022-07-23T01:27:34;22.90;99.90
14192;DHT22;7177;48.572;7.838;2022-07-23T01:30:00;23.00;99.90
14192;DHT22;7177;48.572;7.838;2022-07-23T01:32:26;22.90;99.90
14192;DHT22;7177;48.572;7.838;2022-07-23T01:34:52;22.90;99.90
14192;DHT22;7177;48.572;7.838;2022-07-23T01:37:17;22.90;99.90
14192;DHT22;7177;48.572;7.838;2022-07-23T01:39:43;22.90;99.90
14192;DHT22;7177;48.572;7.838;2022-07-23T01:42:08;22.80;99.90
14192;DHT22;7177;48.572;7.838;2022-07-23T01:44:34;22.80;99.90
14192;DHT22;7177;48.572;7.838;2022-07-23T01:47:00;22.80;99.90
14192;DHT22;7177;48.572;7.838;2022-07-23T01:49:25;22.80;99.90
14192;DHT22;7177;48.572;7.838;2022-07-23T01:51:51;22.70;99.90
14192;DHT22;7177;48.572;7.838;2022-07-23T01:54:27;22.60;99.90
14192;DHT22;7177;48.572;7.838;2022-07-23T01:56:53;22.60;99.90
14192;DHT22;7177;48.572;7.838;2022-07-23T01:59:19;22.40;99.90
14192;DHT22;7177;48.572;7.838;2022-07-23T02:01:44;22.20;99.90
14192;DHT22;7177;48.572;7.838;2022-07-23T02:04:10;22.10;99.90
14192;DHT22;7177;48.572;7.838;2022-07-23T02:06:36;22.00;99.90
14192;DHT22;7177;48.572;7.838;2022-07-23T02:09:01;21.90;99.90
14192;DHT22;7177;48.572;7.838;2022-07-23T02:11:27;21.90;99.90
14192;DHT22;7177;48.572;7.838;2022-07-23T02:13:52;21.80;99.90
14192;DHT22;7177;48.572;7.838;2022-07-23T02:16:18;21.80;99.90
14192;DHT22;7177;48.572;7.838;2022-07-23T02:18:43;21.70;99.90
14192;DHT22;7177;48.572;7.838;2022-07-23T02:21:09;21.60;99.90
14192;DHT22;7177;48.572;7.838;2022-07-23T02:23:35;21.50;99.90
14192;DHT22;7177;48.572;7.838;2022-07-23T02:26:00;21.40;99.90
14192;DHT22;7177;48.572;7.838;2022-07-23T02:28:26;21.40;99.90
14192;DHT22;7177;48.572;7.838;2022-07-23T02:30:51;21.40;99.90
14192;DHT22;7177;48.572;7.838;2022-07-23T02:33:17;21.40;99.90
14192;DHT22;7177;48.572;7.838;2022-07-23T02:35:42;21.40;99.90
14192;DHT22;7177;48.572;7.838;2022-07-23T02:38:08;21.40;99.90
14192;DHT22;7177;48.572;7.838;2022-07-23T02:40:33;21.40;99.90
14192;DHT22;7177;48.572;7.838;2022-07-23T02:42:59;21.40;99.90
14192;DHT22;7177;48.572;7.838;2022-07-23T02:45:24;21.30;99.90
14192;DHT22;7177;48.572;7.838;2022-07-23T02:47:50;21.30;99.90
14192;DHT22;7177;48.572;7.838;2022-07-23T02:50:15;21.40;99.90
14192;DHT22;7177;48.572;7.838;2022-07-23T02:52:41;21.40;99.90
14192;DHT22;7177;48.572;7.838;2022-07-23T02:55:07;21.30;99.90
14192;DHT22;7177;48.572;7.838;2022-07-23T02:57:33;21.30;99.90
14192;DHT22;7177;48.572;7.838;2022-07-23T02:59:58;21.30;99.90
14192;DHT22;7177;48.572;7.838;2022-07-23T03:02:24;21.40;99.90
14192;DHT22;7177;48.572;7.838;2022-07-23T03:04:50;21.40;99.90
14192;DHT22;7177;48.572;7.838;2022-07-23T03:07:16;21.40;99.90
14192;DHT22;7177;48.572;7.838;2022-07-23T03:09:42;21.40;99.90
14192;DHT22;7177;48.572;7.838;2022-07-23T03:12:08;21.40;99.90
14192;DHT22;7177;48.572;7.838;2022-07-23T03:14:34;21.40;99.90
14192;DHT22;7177;48.572;7.838;2022-07-23T03:16:59;21.40;99.90
14192;DHT22;7177;48.572;7.838;2022-07-23T03:19:25;21.30;99.90
14192;DHT22;7177;48.572;7.838;2022-07-23T03:21:51;21.30;99.90
14192;DHT22;7177;48.572;7.838;2022-07-23T03:24:17;21.30;99.90
14192;DHT22;7177;48.572;7.838;2022-07-23T03:26:43;21.30;99.90
14192;DHT22;7177;48.572;7.838;2022-07-23T03:29:09;21.30;99.90
14192;DHT22;7177;48.572;7.838;2022-07-23T03:31:35;21.40;99.90
14192;DHT22;7177;48.572;7.838;2022-07-23T03:34:00;21.30;99.90
14192;DHT22;7177;48.572;7.838;2022-07-23T03:36:26;21.30;99.90
14192;DHT22;7177;48.572;7.838;2022-07-23T03:38:52;21.40;99.90
14192;DHT22;7177;48.572;7.838;2022-07-23T03:41:18;21.30;99.90
14192;DHT22;7177;48.572;7.838;2022-07-23T03:43:44;21.30;99.90
14192;DHT22;7177;48.572;7.838;2022-07-23T03:46:09;21.20;99.90
14192;DHT22;7177;48.572;7.838;2022-07-23T03:48:35;21.20;99.90
14192;DHT22;7177;48.572;7.838;2022-07-23T03:51:01;21.20;99.90
14192;DHT22;7177;48.572;7.838;2022-07-23T03:53:27;21.30;99.90
14192;DHT22;7177;48.572;7.838;2022-07-23T03:55:52;21.30;99.90
14192;DHT22;7177;48.572;7.838;2022-07-23T03:58:17;21.40;99.90
14192;DHT22;7177;48.572;7.838;2022-07-23T04:00:43;21.40;99.90
14192;DHT22;7177;48.572;7.838;2022-07-23T04:03:08;21.30;99.90
14192;DHT22;7177;48.572;7.838;2022-07-23T04:05:34;21.20;99.90
14192;DHT22;7177;48.572;7.838;2022-07-23T04:08:00;21.20;99.90
14192;DHT22;7177;48.572;7.838;2022-07-23T04:10:25;21.20;99.90
14192;DHT22;7177;48.572;7.838;2022-07-23T04:12:51;21.10;99.90
14192;DHT22;7177;48.572;7.838;2022-07-23T04:15:16;21.20;99.90
14192;DHT22;7177;48.572;7.838;2022-07-23T04:17:42;21.20;99.90
14192;DHT22;7177;48.572;7.838;2022-07-23T04:20:09;21.20;99.90
14192;DHT22;7177;48.572;7.838;2022-07-23T04:22:36;21.30;99.90
14192;DHT22;7177;48.572;7.838;2022-07-23T04:27:27;21.30;99.90
14192;DHT22;7177;48.572;7.838;2022-07-23T04:29:52;21.30;99.90
14192;DHT22;7177;48.572;7.838;2022-07-23T04:32:18;21.30;99.90
14192;DHT22;7177;48.572;7.838;2022-07-23T04:34:44;21.30;99.90
14192;DHT22;7177;48.572;7.838;2022-07-23T04:37:09;21.30;99.90
14192;DHT22;7177;48.572;7.838;2022-07-23T04:39:35;21.40;99.90
14192;DHT22;7177;48.572;7.838;2022-07-23T04:42:00;21.40;99.90
14192;DHT22;7177;48.572;7.838;2022-07-23T04:44:26;21.50;99.90
14192;DHT22;7177;48.572;7.838;2022-07-23T04:46:51;21.50;99.90
14192;DHT22;7177;48.572;7.838;2022-07-23T04:49:17;21.60;99.90
14192;DHT22;7177;48.572;7.838;2022-07-23T04:51:42;21.60;99.90
14192;DHT22;7177;48.572;7.838;2022-07-23T04:54:08;21.60;99.90
14192;DHT22;7177;48.572;7.838;2022-07-23T04:56:33;21.50;99.90
14192;DHT22;7177;48.572;7.838;2022-07-23T04:58:59;21.60;99.90
14192;DHT22;7177;48.572;7.838;2022-07-23T05:01:24;21.70;99.90
14192;DHT22;7177;48.572;7.838;2022-07-23T05:03:50;21.60;99.90
14192;DHT22;7177;48.572;7.838;2022-07-23T05:06:15;21.50;99.90
14192;DHT22;7177;48.572;7.838;2022-07-23T05:08:41;21.40;99.90
14192;DHT22;7177;48.572;7.838;2022-07-23T05:11:06;21.40;99.90
14192;DHT22;7177;48.572;7.838;2022-07-23T05:13:32;21.30;99.90
14192;DHT22;7177;48.572;7.838;2022-07-23T05:15:57;21.30;99.90
14192;DHT22;7177;48.572;7.838;2022-07-23T05:18:23;21.40;99.90
14192;DHT22;7177;48.572;7.838;2022-07-23T05:20:49;21.50;99.90
14192;DHT22;7177;48.572;7.838;2022-07-23T05:23:14;21.50;99.90
14192;DHT22;7177;48.572;7.838;2022-07-23T05:25:40;21.70;99.90
14192;DHT22;7177;48.572;7.838;2022-07-23T05:28:05;21.80;99.90
14192;DHT22;7177;48.572;7.838;2022-07-23T05:30:31;22.00;99.90
14192;DHT22;7177;48.572;7.838;2022-07-23T05:32:56;22.20;99.90
14192;DHT22;7177;48.572;7.838;2022-07-23T05:35:22;22.30;99.90
14192;DHT22;7177;48.572;7.838;2022-07-23T05:37:48;22.00;99.90
14192;DHT22;7177;48.572;7.838;2022-07-23T05:40:14;22.00;99.90
14192;DHT22;7177;48.572;7.838;2022-07-23T05:42:40;22.00;99.90
14192;DHT22;7177;48.572;7.838;2022-07-23T05:45:08;22.20;99.90
14192;DHT22;7177;48.572;7.838;2022-07-23T05:47:59;22.20;99.90
14192;DHT22;7177;48.572;7.838;2022-07-23T05:50:25;22.20;99.90
14192;DHT22;7177;48.572;7.838;2022-07-23T05:52:50;22.30;99.90
14192;DHT22;7177;48.572;7.838;2022-07-23T05:55:16;22.40;99.90
14192;DHT22;7177;48.572;7.838;2022-07-23T05:57:41;22.40;99.90
14192;DHT22;7177;48.572;7.838;2022-07-23T06:00:09;22.40;99.90
14192;DHT22;7177;48.572;7.838;2022-07-23T06:02:35;22.40;99.90
14192;DHT22;7177;48.572;7.838;2022-07-23T06:05:00;22.40;99.90
14192;DHT22;7177;48.572;7.838;2022-07-23T06:07:26;22.40;99.90
14192;DHT22;7177;48.572;7.838;2022-07-23T06:09:51;22.40;99.90
14192;DHT22;7177;48.572;7.838;2022-07-23T06:12:17;22.30;99.90
14192;DHT22;7177;48.572;7.838;2022-07-23T06:14:43;22.60;99.90
14192;DHT22;7177;48.572;7.838;2022-07-23T06:17:09;23.00;99.90
14192;DHT22;7177;48.572;7.838;2022-07-23T06:19:34;23.20;99.90
14192;DHT22;7177;48.572;7.838;2022-07-23T06:22:00;23.50;99.90
14192;DHT22;7177;48.572;7.838;2022-07-23T06:24:25;23.60;99.90
14192;DHT22;7177;48.572;7.838;2022-07-23T06:26:51;23.60;99.90
14192;DHT22;7177;48.572;7.838;2022-07-23T06:29:17;23.60;99.90
14192;DHT22;7177;48.572;7.838;2022-07-23T06:31:42;23.70;99.90
14192;DHT22;7177;48.572;7.838;2022-07-23T06:34:08;23.70;99.90
14192;DHT22;7177;48.572;7.838;2022-07-23T06:36:33;23.70;99.90
14192;DHT22;7177;48.572;7.838;2022-07-23T06:38:59;23.70;99.90
14192;DHT22;7177;48.572;7.838;2022-07-23T06:41:24;23.60;99.90
14192;DHT22;7177;48.572;7.838;2022-07-23T06:43:50;23.60;99.90
14192;DHT22;7177;48.572;7.838;2022-07-23T06:46:15;23.60;99.90
14192;DHT22;7177;48.572;7.838;2022-07-23T06:48:41;23.60;99.90
14192;DHT22;7177;48.572;7.838;2022-07-23T06:51:06;23.60;99.90
14192;DHT22;7177;48.572;7.838;2022-07-23T06:53:32;23.80;99.90
14192;DHT22;7177;48.572;7.838;2022-07-23T06:55:57;23.90;99.90
14192;DHT22;7177;48.572;7.838;2022-07-23T06:58:23;23.80;99.90
14192;DHT22;7177;48.572;7.838;2022-07-23T07:00:48;23.80;99.90
14192;DHT22;7177;48.572;7.838;2022-07-23T07:03:14;23.80;99.90
14192;DHT22;7177;48.572;7.838;2022-07-23T07:05:41;23.90;99.90
14192;DHT22;7177;48.572;7.838;2022-07-23T07:08:07;23.90;99.90
14192;DHT22;7177;48.572;7.838;2022-07-23T07:10:32;23.90;99.90
14192;DHT22;7177;48.572;7.838;2022-07-23T07:12:58;24.00;99.90
14192;DHT22;7177;48.572;7.838;2022-07-23T07:15:23;24.10;99.90
14192;DHT22;7177;48.572;7.838;2022-07-23T07:17:49;24.10;99.90
14192;DHT22;7177;48.572;7.838;2022-07-23T07:20:15;24.10;99.90
14192;DHT22;7177;48.572;7.838;2022-07-23T07:22:40;24.20;99.90
14192;DHT22;7177;48.572;7.838;2022-07-23T07:25:07;24.30;99.90
14192;DHT22;7177;48.572;7.838;2022-07-23T07:27:32;24.40;99.90
14192;DHT22;7177;48.572;7.838;2022-07-23T07:29:58;24.40;99.90
14192;DHT22;7177;48.572;7.838;2022-07-23T07:32:23;24.30;99.90
14192;DHT22;7177;48.572;7.838;2022-07-23T07:34:49;24.30;99.90
14192;DHT22;7177;48.572;7.838;2022-07-23T07:37:14;24.30;99.90
14192;DHT22;7177;48.572;7.838;2022-07-23T07:39:40;24.50;99.90
14192;DHT22;7177;48.572;7.838;2022-07-23T07:42:05;24.60;99.90
14192;DHT22;7177;48.572;7.838;2022-07-23T07:44:31;24.90;99.90
14192;DHT22;7177;48.572;7.838;2022-07-23T07:46:56;25.20;99.90
14192;DHT22;7177;48.572;7.838;2022-07-23T07:49:22;25.70;99.90
14192;DHT22;7177;48.572;7.838;2022-07-23T07:51:49;26.10;99.90
14192;DHT22;7177;48.572;7.838;2022-07-23T07:54:14;26.40;99.90
14192;DHT22;7177;48.572;7.838;2022-07-23T07:56:40;26.30;99.90
14192;DHT22;7177;48.572;7.838;2022-07-23T07:59:06;26.30;99.90
14192;DHT22;7177;48.572;7.838;2022-07-23T08:01:32;26.50;99.90
14192;DHT22;7177;48.572;7.838;2022-07-23T08:03:58;26.90;99.90
14192;DHT22;7177;48.572;7.838;2022-07-23T08:06:23;27.30;99.90
14192;DHT22;7177;48.572;7.838;2022-07-23T08:08:49;27.80;99.90
14192;DHT22;7177;48.572;7.838;2022-07-23T08:11:14;28.20;99.90
14192;DHT22;7177;48.572;7.838;2022-07-23T08:13:40;28.00;99.90
14192;DHT22;7177;48.572;7.838;2022-07-23T08:16:06;28.30;99.90
14192;DHT22;7177;48.572;7.838;2022-07-23T08:18:32;28.70;99.90
14192;DHT22;7177;48.572;7.838;2022-07-23T08:20:57;28.90;99.90
14192;DHT22;7177;48.572;7.838;2022-07-23T08:23:23;28.80;99.90
14192;DHT22;7177;48.572;7.838;2022-07-23T08:25:48;28.60;99.90
14192;DHT22;7177;48.572;7.838;2022-07-23T08:28:15;28.40;99.90
14192;DHT22;7177;48.572;7.838;2022-07-23T08:30:42;28.20;99.90
14192;DHT22;7177;48.572;7.838;2022-07-23T08:33:16;28.20;99.90
14192;DHT22;7177;48.572;7.838;2022-07-23T08:35:44;28.40;99.90
14192;DHT22;7177;48.572;7.838;2022-07-23T08:38:13;28.40;99.90
14192;DHT22;7177;48.572;7.838;2022-07-23T08:40:41;28.10;99.90
14192;DHT22;7177;48.572;7.838;2022-07-23T08:43:09;28.30;99.90
14192;DHT22;7177;48.572;7.838;2022-07-23T08:45:38;28.30;99.90
14192;DHT22;7177;48.572;7.838;2022-07-23T08:48:06;28.40;99.90
14192;DHT22;7177;48.572;7.838;2022-07-23T08:50:32;28.70;99.90
14192;DHT22;7177;48.572;7.838;2022-07-23T08:53:00;29.40;99.90
14192;DHT22;7177;48.572;7.838;2022-07-23T08:55:26;29.80;99.90
14192;DHT22;7177;48.572;7.838;2022-07-23T08:57:52;30.10;99.90
14192;DHT22;7177;48.572;7.838;2022-07-23T09:00:20;30.30;99.90
14192;DHT22;7177;48.572;7.838;2022-07-23T09:02:46;30.10;99.90
14192;DHT22;7177;48.572;7.838;2022-07-23T09:05:13;29.80;99.90
14192;DHT22;7177;48.572;7.838;2022-07-23T09:10:49;30.30;99.90
14192;DHT22;7177;48.572;7.838;2022-07-23T09:16:16;30.70;99.90
14192;DHT22;7177;48.572;7.838;2022-07-23T09:18:45;31.00;99.90
14192;DHT22;7177;48.572;7.838;2022-07-23T09:26:41;31.20;99.90
14192;DHT22;7177;48.572;7.838;2022-07-23T09:31:43;30.60;99.90
14192;DHT22;7177;48.572;7.838;2022-07-23T09:34:12;30.30;99.90
14192;DHT22;7177;48.572;7.838;2022-07-23T09:36:38;29.80;99.90
14192;DHT22;7177;48.572;7.838;2022-07-23T09:39:04;29.50;99.90
14192;DHT22;7177;48.572;7.838;2022-07-23T09:41:46;29.50;99.90
14192;DHT22;7177;48.572;7.838;2022-07-23T09:44:18;29.60;99.90
14192;DHT22;7177;48.572;7.838;2022-07-23T09:46:45;29.90;99.90
14192;DHT22;7177;48.572;7.838;2022-07-23T09:49:22;30.30;99.90
14192;DHT22;7177;48.572;7.838;2022-07-23T09:51:53;30.90;99.90
14192;DHT22;7177;48.572;7.838;2022-07-23T09:56:54;31.50;99.90
14192;DHT22;7177;48.572;7.838;2022-07-23T09:59:24;31.80;99.90
14192;DHT22;7177;48.572;7.838;2022-07-23T10:01:53;32.20;99.90
14192;DHT22;7177;48.572;7.838;2022-07-23T10:04:21;32.30;99.90
14192;DHT22;7177;48.572;7.838;2022-07-23T10:06:51;32.10;99.90
14192;DHT22;7177;48.572;7.838;2022-07-23T10:09:26;32.00;99.90
14192;DHT22;7177;48.572;7.838;2022-07-23T10:11:54;32.10;99.90
14192;DHT22;7177;48.572;7.838;2022-07-23T10:14:21;32.60;98.60
14192;DHT22;7177;48.572;7.838;2022-07-23T10:16:47;32.10;98.60
14192;DHT22;7177;48.572;7.838;2022-07-23T10:19:13;32.80;99.40
14192;DHT22;7177;48.572;7.838;2022-07-23T10:21:48;32.60;98.60
14192;DHT22;7177;48.572;7.838;2022-07-23T10:24:37;32.40;98.60
14192;DHT22;7177;48.572;7.838;2022-07-23T10:29:57;32.50;97.20
14192;DHT22;7177;48.572;7.838;2022-07-23T10:32:34;32.80;97.00
14192;DHT22;7177;48.572;7.838;2022-07-23T10:35:31;32.90;96.80
14192;DHT22;7177;48.572;7.838;2022-07-23T10:38:24;33.60;95.50
14192;DHT22;7177;48.572;7.838;2022-07-23T10:41:01;34.30;94.50
14192;DHT22;7177;48.572;7.838;2022-07-23T10:43:28;34.40;92.50
14192;DHT22;7177;48.572;7.838;2022-07-23T10:46:20;34.50;92.10
14192;DHT22;7177;48.572;7.838;2022-07-23T10:48:42;34.50;91.60
14192;DHT22;7177;48.572;7.838;2022-07-23T10:51:13;34.40;92.30
14192;DHT22;7177;48.572;7.838;2022-07-23T10:59:22;32.80;92.40
14192;DHT22;7177;48.572;7.838;2022-07-23T11:01:47;32.20;93.10
14192;DHT22;7177;48.572;7.838;2022-07-23T11:04:13;31.50;93.80
14192;DHT22;7177;48.572;7.838;2022-07-23T11:09:26;30.90;95.60
14192;DHT22;7177;48.572;7.838;2022-07-23T11:15:09;31.00;96.20
14192;DHT22;7177;48.572;7.838;2022-07-23T11:25:08;31.80;95.10
14192;DHT22;7177;48.572;7.838;2022-07-23T11:27:44;32.10;93.80
14192;DHT22;7177;48.572;7.838;2022-07-23T11:35:37;32.60;94.00
14192;DHT22;7177;48.572;7.838;2022-07-23T11:38:20;32.30;93.60
14192;DHT22;7177;48.572;7.838;2022-07-23T11:40:55;31.90;93.10
14192;DHT22;7177;48.572;7.838;2022-07-23T11:43:23;31.70;93.20
14192;DHT22;7177;48.572;7.838;2022-07-23T11:45:51;31.30;93.10
14192;DHT22;7177;48.572;7.838;2022-07-23T11:48:23;30.90;95.60
14192;DHT22;7177;48.572;7.838;2022-07-23T11:50:50;30.80;94.90
14192;DHT22;7177;48.572;7.838;2022-07-23T11:53:30;31.00;94.00
14192;DHT22;7177;48.572;7.838;2022-07-23T11:56:07;31.70;93.60
14192;DHT22;7177;48.572;7.838;2022-07-23T11:58:34;31.70;92.80
14192;DHT22;7177;48.572;7.838;2022-07-23T12:00:59;31.50;93.80
14192;DHT22;7177;48.572;7.838;2022-07-23T12:03:25;31.40;93.70
14192;DHT22;7177;48.572;7.838;2022-07-23T12:05:56;31.50;93.70
14192;DHT22;7177;48.572;7.838;2022-07-23T12:08:23;31.60;92.40
14192;DHT22;7177;48.572;7.838;2022-07-23T12:10:49;31.50;93.90
14192;DHT22;7177;48.572;7.838;2022-07-23T12:13:17;31.20;95.30
14192;DHT22;7177;48.572;7.838;2022-07-23T12:15:48;31.10;95.60
14192;DHT22;7177;48.572;7.838;2022-07-23T12:18:17;31.30;96.40
14192;DHT22;7177;48.572;7.838;2022-07-23T12:20:47;32.00;95.00
14192;DHT22;7177;48.572;7.838;2022-07-23T12:23:15;32.70;94.00
14192;DHT22;7177;48.572;7.838;2022-07-23T12:25:43;33.20;93.50
14192;DHT22;7177;48.572;7.838;2022-07-23T12:30:47;34.20;91.00
14192;DHT22;7177;48.572;7.838;2022-07-23T12:33:38;34.30;90.70
14192;DHT22;7177;48.572;7.838;2022-07-23T12:36:07;34.20;89.00
14192;DHT22;7177;48.572;7.838;2022-07-23T12:38:42;34.10;88.70
14192;DHT22;7177;48.572;7.838;2022-07-23T12:41:07;34.20;87.70
14192;DHT22;7177;48.572;7.838;2022-07-23T12:43:37;34.10;85.90
14192;DHT22;7177;48.572;7.838;2022-07-23T12:46:08;33.90;87.30
14192;DHT22;7177;48.572;7.838;2022-07-23T12:48:39;33.30;85.90
14192;DHT22;7177;48.572;7.838;2022-07-23T12:51:09;32.40;87.00
14192;DHT22;7177;48.572;7.838;2022-07-23T12:53:42;32.20;88.20
14192;DHT22;7177;48.572;7.838;2022-07-23T12:56:11;32.50;87.10
14192;DHT22;7177;48.572;7.838;2022-07-23T13:01:30;33.50;83.20
14192;DHT22;7177;48.572;7.838;2022-07-23T13:06:32;34.00;84.90
14192;DHT22;7177;48.572;7.838;2022-07-23T13:08:59;34.40;81.20
14192;DHT22;7177;48.572;7.838;2022-07-23T13:11:25;34.70;79.10
14192;DHT22;7177;48.572;7.838;2022-07-23T13:13:50;34.50;79.30
14192;DHT22;7177;48.572;7.838;2022-07-23T13:16:16;34.40;80.90
14192;DHT22;7177;48.572;7.838;2022-07-23T13:18:42;34.40;80.50
14192;DHT22;7177;48.572;7.838;2022-07-23T13:21:08;34.40;78.90
14192;DHT22;7177;48.572;7.838;2022-07-23T13:23:34;34.10;77.70
14192;DHT22;7177;48.572;7.838;2022-07-23T13:25:59;34.40;78.10
14192;DHT22;7177;48.572;7.838;2022-07-23T13:28:25;34.50;76.50
14192;DHT22;7177;48.572;7.838;2022-07-23T13:30:52;34.30;78.70
14192;DHT22;7177;48.572;7.838;2022-07-23T13:33:19;34.10;78.50
14192;DHT22;7177;48.572;7.838;2022-07-23T13:35:45;34.50;78.10
14192;DHT22;7177;48.572;7.838;2022-07-23T13:38:11;34.70;76.60
14192;DHT22;7177;48.572;7.838;2022-07-23T13:40:39;34.80;74.70
14192;DHT22;7177;48.572;7.838;2022-07-23T13:43:09;34.90;75.70
14192;DHT22;7177;48.572;7.838;2022-07-23T13:45:35;35.20;75.30
14192;DHT22;7177;48.572;7.838;2022-07-23T13:48:01;35.60;73.20
14192;DHT22;7177;48.572;7.838;2022-07-23T13:50:27;35.40;72.30
14192;DHT22;7177;48.572;7.838;2022-07-23T13:52:52;34.60;74.70
14192;DHT22;7177;48.572;7.838;2022-07-23T13:55:18;34.30;76.90
14192;DHT22;7177;48.572;7.838;2022-07-23T13:57:43;33.80;76.50
14192;DHT22;7177;48.572;7.838;2022-07-23T14:00:09;33.90;75.30
14192;DHT22;7177;48.572;7.838;2022-07-23T14:02:37;34.50;72.90
14192;DHT22;7177;48.572;7.838;2022-07-23T14:05:05;34.40;72.80
14192;DHT22;7177;48.572;7.838;2022-07-23T14:07:31;34.10;72.40
14192;DHT22;7177;48.572;7.838;2022-07-23T14:09:57;34.20;73.10
14192;DHT22;7177;48.572;7.838;2022-07-23T14:12:22;34.00;75.10
14192;DHT22;7177;48.572;7.838;2022-07-23T14:14:48;34.10;76.70
14192;DHT22;7177;48.572;7.838;2022-07-23T14:17:13;34.10;74.70
14192;DHT22;7177;48.572;7.838;2022-07-23T14:19:39;34.00;77.90
14192;DHT22;7177;48.572;7.838;2022-07-23T14:22:05;33.70;78.50
14192;DHT22;7177;48.572;7.838;2022-07-23T14:24:30;33.50;76.50
14192;DHT22;7177;48.572;7.838;2022-07-23T14:26:56;33.80;76.70
14192;DHT22;7177;48.572;7.838;2022-07-23T14:29:21;34.20;75.60
14192;DHT22;7177;48.572;7.838;2022-07-23T14:31:47;34.60;76.00
14192;DHT22;7177;48.572;7.838;2022-07-23T14:34:13;34.90;74.20
14192;DHT22;7177;48.572;7.838;2022-07-23T14:36:39;35.10;76.40
14192;DHT22;7177;48.572;7.838;2022-07-23T14:39:05;35.10;72.40
14192;DHT22;7177;48.572;7.838;2022-07-23T14:41:30;34.60;74.00
14192;DHT22;7177;48.572;7.838;2022-07-23T14:43:56;34.00;73.80
14192;DHT22;7177;48.572;7.838;2022-07-23T14:46:22;33.80;73.60
14192;DHT22;7177;48.572;7.838;2022-07-23T14:48:47;33.80;73.50
14192;DHT22;7177;48.572;7.838;2022-07-23T14:51:13;34.00;72.00
14192;DHT22;7177;48.572;7.838;2022-07-23T14:53:38;34.10;73.90
14192;DHT22;7177;48.572;7.838;2022-07-23T14:56:04;34.20;74.20
14192;DHT22;7177;48.572;7.838;2022-07-23T14:58:30;34.30;75.50
14192;DHT22;7177;48.572;7.838;2022-07-23T15:00:55;34.00;73.60
14192;DHT22;7177;48.572;7.838;2022-07-23T15:03:21;33.90;74.70
14192;DHT22;7177;48.572;7.838;2022-07-23T15:05:46;34.10;74.40
14192;DHT22;7177;48.572;7.838;2022-07-23T15:08:12;34.00;74.20
14192;DHT22;7177;48.572;7.838;2022-07-23T15:10:37;34.10;73.70
14192;DHT22;7177;48.572;7.838;2022-07-23T15:13:03;34.00;75.00
14192;DHT22;7177;48.572;7.838;2022-07-23T15:15:29;33.60;76.60
14192;DHT22;7177;48.572;7.838;2022-07-23T15:17:55;33.60;76.70
14192;DHT22;7177;48.572;7.838;2022-07-23T15:20:20;33.90;74.80
14192;DHT22;7177;48.572;7.838;2022-07-23T15:22:46;34.20;74.80
14192;DHT22;7177;48.572;7.838;2022-07-23T15:25:13;34.20;74.10
14192;DHT22;7177;48.572;7.838;2022-07-23T15:27:38;34.10;74.20
14192;DHT22;7177;48.572;7.838;2022-07-23T15:30:04;33.70;75.60
14192;DHT22;7177;48.572;7.838;2022-07-23T15:32:30;33.20;75.80
14192;DHT22;7177;48.572;7.838;2022-07-23T15:34:55;32.80;77.00
14192;DHT22;7177;48.572;7.838;2022-07-23T15:37:22;32.70;77.60
14192;DHT22;7177;48.572;7.838;2022-07-23T15:39:51;32.70;77.90
14192;DHT22;7177;48.572;7.838;2022-07-23T15:42:16;32.90;76.00
14192;DHT22;7177;48.572;7.838;2022-07-23T15:44:43;33.30;76.50
14192;DHT22;7177;48.572;7.838;2022-07-23T15:47:15;33.70;74.90
14192;DHT22;7177;48.572;7.838;2022-07-23T15:49:41;33.80;72.80
14192;DHT22;7177;48.572;7.838;2022-07-23T15:52:07;33.60;72.80
14192;DHT22;7177;48.572;7.838;2022-07-23T15:54:35;33.90;74.30
14192;DHT22;7177;48.572;7.838;2022-07-23T15:57:01;33.60;71.30
14192;DHT22;7177;48.572;7.838;2022-07-23T15:59:27;33.50;73.40
14192;DHT22;7177;48.572;7.838;2022-07-23T16:01:52;33.30;73.00
14192;DHT22;7177;48.572;7.838;2022-07-23T16:04:18;33.00;72.60
14192;DHT22;7177;48.572;7.838;2022-07-23T16:06:43;32.50;75.10
14192;DHT22;7177;48.572;7.838;2022-07-23T16:09:09;32.20;77.00
14192;DHT22;7177;48.572;7.838;2022-07-23T16:11:34;32.00;78.40
14192;DHT22;7177;48.572;7.838;2022-07-23T16:14:00;31.70;79.70
14192;DHT22;7177;48.572;7.838;2022-07-23T16:16:26;31.50;79.60
14192;DHT22;7177;48.572;7.838;2022-07-23T16:18:53;31.20;80.40
14192;DHT22;7177;48.572;7.838;2022-07-23T16:21:18;31.00;80.70
14192;DHT22;7177;48.572;7.838;2022-07-23T16:23:44;30.90;82.20
14192;DHT22;7177;48.572;7.838;2022-07-23T16:26:10;30.70;81.80
14192;DHT22;7177;48.572;7.838;2022-07-23T16:28:37;30.60;82.50
14192;DHT22;7177;48.572;7.838;2022-07-23T16:31:02;30.60;82.40
14192;DHT22;7177;48.572;7.838;2022-07-23T16:33:28;30.80;83.20
14192;DHT22;7177;48.572;7.838;2022-07-23T16:35:53;30.80;83.50
14192;DHT22;7177;48.572;7.838;2022-07-23T16:38:19;30.70;83.50